sensor_id;sensor_type;location;lat;lon;timestamp;pressure;altitude;pressure_sealevel;temperature;humidity
42415;BME280;28058;46.344;17.786;2022-08-01T00:01:59;118336.50;;;-144.97;81.37
42415;BME280;28058;46.344;17.786;2022-08-01T00:04:26;118336.50;;;-144.97;82.19
42415;BME280;28058;46.344;17.786;2022-08-01T00:06:52;118336.50;;;-144.97;83.64
42415;BME280;28058;46.344;17.786;2022-08-01T00:09:19;118336.50;;;-144.97;84.08
42415;BME280;28058;46.344;17.786;2022-08-01T00:11:49;118336.50;;;-144.97;83.23
42415;BME280;28058;46.344;17.786;2022-08-01T00:14:25;118336.50;;;-144.97;83.61
42415;BME280;28058;46.344;17.786;2022-08-01T00:16:58;118336.50;;;-144.97;83.43
42415;BME280;28058;46.344;17.786;2022-08-01T00:19:32;118336.50;;;-144.97;83.77
42415;BME280;28058;46.344;17.786;2022-08-01T00:21:59;118336.50;;;-144.97;83.46
42415;BME280;28058;46.344;17.786;2022-08-01T00:24:26;118336.50;;;-144.97;84.00
42415;BME280;28058;46.344;17.786;2022-08-01T00:26:52;118336.50;;;-144.97;82.95
42415;BME280;28058;46.344;17.786;2022-08-01T00:29:19;118336.50;;;-144.97;85.09
42415;BME280;28058;46.344;17.786;2022-08-01T00:32:06;118336.50;;;-144.97;83.23
42415;BME280;28058;46.344;17.786;2022-08-01T00:34:33;118336.50;;;-144.97;84.18
42415;BME280;28058;46.344;17.786;2022-08-01T00:37:00;118336.50;;;-144.97;84.27
42415;BME280;28058;46.344;17.786;2022-08-01T00:39:27;118336.50;;;-144.97;84.96
42415;BME280;28058;46.344;17.786;2022-08-01T00:41:53;118336.50;;;-144.97;84.70
42415;BME280;28058;46.344;17.786;2022-08-01T00:44:25;118336.50;;;-144.97;84.94
42415;BME280;28058;46.344;17.786;2022-08-01T00:46:52;118336.50;;;-144.97;84.90
42415;BME280;28058;46.344;17.786;2022-08-01T00:49:19;118336.50;;;-144.97;85.60
42415;BME280;28058;46.344;17.786;2022-08-01T00:51:46;118336.50;;;-144.97;85.97
42415;BME280;28058;46.344;17.786;2022-08-01T00:54:12;118336.50;;;-144.97;86.57
42415;BME280;28058;46.344;17.786;2022-08-01T00:56:42;118336.50;;;-144.97;86.17
42415;BME280;28058;46.344;17.786;2022-08-01T00:59:09;118336.50;;;-144.97;87.22
42415;BME280;28058;46.344;17.786;2022-08-01T01:01:39;118336.50;;;-144.97;87.59
42415;BME280;28058;46.344;17.786;2022-08-01T01:04:12;118336.50;;;-144.97;86.68
42415;BME280;28058;46.344;17.786;2022-08-01T01:06:57;118336.50;;;-144.97;86.31
42415;BME280;28058;46.344;17.786;2022-08-01T01:17:16;118336.50;;;-144.97;87.21
42415;BME280;28058;46.344;17.786;2022-08-01T01:20:03;118336.50;;;-144.97;86.51
42415;BME280;28058;46.344;17.786;2022-08-01T01:25:21;118336.50;;;-144.97;86.55
42415;BME280;28058;46.344;17.786;2022-08-01T01:30:34;118336.50;;;-144.97;88.27
42415;BME280;28058;46.344;17.786;2022-08-01T01:33:02;118336.50;;;-144.97;88.32
42415;BME280;28058;46.344;17.786;2022-08-01T01:35:31;118336.50;;;-144.97;88.23
42415;BME280;28058;46.344;17.786;2022-08-01T01:38:04;118336.50;;;-144.97;88.43
42415;BME280;28058;46.344;17.786;2022-08-01T01:40:31;118336.50;;;-144.97;89.29
42415;BME280;28058;46.344;17.786;2022-08-01T01:42:59;118336.50;;;-144.97;89.47
42415;BME280;28058;46.344;17.786;2022-08-01T01:45:26;118336.50;;;-144.97;89.94
42415;BME280;28058;46.344;17.786;2022-08-01T01:47:53;118336.50;;;-144.97;91.00
42415;BME280;28058;46.344;17.786;2022-08-01T01:50:21;118336.50;;;-144.97;90.50
42415;BME280;28058;46.344;17.786;2022-08-01T01:52:48;118336.50;;;-144.97;90.31
42415;BME280;28058;46.344;17.786;2022-08-01T01:55:15;118336.50;;;-144.97;88.81
42415;BME280;28058;46.344;17.786;2022-08-01T01:57:43;118336.50;;;-144.97;88.71
42415;BME280;28058;46.344;17.786;2022-08-01T02:00:11;118336.50;;;-144.97;89.23
42415;BME280;28058;46.344;17.786;2022-08-01T02:02:39;118336.50;;;-144.97;89.82
42415;BME280;28058;46.344;17.786;2022-08-01T02:05:07;118336.50;;;-144.97;89.81
42415;BME280;28058;46.344;17.786;2022-08-01T02:07:35;118336.50;;;-144.97;90.57
42415;BME280;28058;46.344;17.786;2022-08-01T02:10:03;118336.50;;;-144.97;90.19
42415;BME280;28058;46.344;17.786;2022-08-01T02:12:35;118336.50;;;-144.97;89.35
42415;BME280;28058;46.344;17.786;2022-08-01T02:15:03;118336.50;;;-144.97;89.75
42415;BME280;28058;46.344;17.786;2022-08-01T02:17:30;118336.50;;;-144.97;90.39
42415;BME280;28058;46.344;17.786;2022-08-01T02:19:57;118336.50;;;-144.97;90.43
42415;BME280;28058;46.344;17.786;2022-08-01T02:22:29;118336.50;;;-144.97;90.77
42415;BME280;28058;46.344;17.786;2022-08-01T02:27:43;118336.50;;;-144.97;91.38
42415;BME280;28058;46.344;17.786;2022-08-01T02:30:12;118336.50;;;-144.97;92.39
42415;BME280;28058;46.344;17.786;2022-08-01T02:32:58;118336.50;;;-144.97;93.11
42415;BME280;28058;46.344;17.786;2022-08-01T02:35:29;118336.50;;;-144.97;93.72
42415;BME280;28058;46.344;17.786;2022-08-01T02:37:57;118336.50;;;-144.97;92.47
42415;BME280;28058;46.344;17.786;2022-08-01T02:40:25;118336.50;;;-144.97;92.21
42415;BME280;28058;46.344;17.786;2022-08-01T02:42:54;118336.50;;;-144.97;93.02
42415;BME280;28058;46.344;17.786;2022-08-01T02:45:25;118336.50;;;-144.97;92.63
42415;BME280;28058;46.344;17.786;2022-08-01T02:47:55;118336.50;;;-144.97;92.36
42415;BME280;28058;46.344;17.786;2022-08-01T02:50:24;118336.50;;;-144.97;91.72
42415;BME280;28058;46.344;17.786;2022-08-01T02:52:52;118336.50;;;-144.97;91.92
42415;BME280;28058;46.344;17.786;2022-08-01T02:55:21;118336.50;;;-144.97;92.51
42415;BME280;28058;46.344;17.786;2022-08-01T02:57:49;118336.50;;;-144.97;93.78
42415;BME280;28058;46.344;17.786;2022-08-01T03:00:26;118336.50;;;-144.97;93.59
42415;BME280;28058;46.344;17.786;2022-08-01T03:02:53;118336.50;;;-144.97;94.50
42415;BME280;28058;46.344;17.786;2022-08-01T03:05:21;118336.50;;;-144.97;94.50
42415;BME280;28058;46.344;17.786;2022-08-01T03:07:48;118336.50;;;-144.97;94.41
42415;BME280;28058;46.344;17.786;2022-08-01T03:10:16;118336.50;;;-144.97;94.95
42415;BME280;28058;46.344;17.786;2022-08-01T03:12:43;118336.50;;;-144.97;94.71
42415;BME280;28058;46.344;17.786;2022-08-01T03:15:13;118336.50;;;-144.97;95.74
42415;BME280;28058;46.344;17.786;2022-08-01T03:17:41;118336.50;;;-144.97;95.31
42415;BME280;28058;46.344;17.786;2022-08-01T03:20:10;118336.50;;;-144.97;95.42
42415;BME280;28058;46.344;17.786;2022-08-01T03:22:38;118336.50;;;-144.97;96.12
42415;BME280;28058;46.344;17.786;2022-08-01T03:25:05;118336.50;;;-144.97;95.39
42415;BME280;28058;46.344;17.786;2022-08-01T03:27:33;118336.50;;;-144.97;95.29
42415;BME280;28058;46.344;17.786;2022-08-01T03:30:02;118336.50;;;-144.97;95.62
42415;BME280;28058;46.344;17.786;2022-08-01T03:32:30;118336.50;;;-144.97;96.33
42415;BME280;28058;46.344;17.786;2022-08-01T03:34:57;118336.50;;;-144.97;96.89
42415;BME280;28058;46.344;17.786;2022-08-01T03:37:25;118336.50;;;-144.97;97.29
42415;BME280;28058;46.344;17.786;2022-08-01T03:42:39;118336.50;;;-144.97;96.56
42415;BME280;28058;46.344;17.786;2022-08-01T03:45:15;118336.50;;;-144.97;95.03
42415;BME280;28058;46.344;17.786;2022-08-01T03:47:45;118336.50;;;-144.97;95.01
42415;BME280;28058;46.344;17.786;2022-08-01T03:50:13;118336.50;;;-144.97;94.93
42415;BME280;28058;46.344;17.786;2022-08-01T03:52:41;118336.50;;;-144.97;95.34
42415;BME280;28058;46.344;17.786;2022-08-01T03:55:09;118336.50;;;-144.97;96.44
42415;BME280;28058;46.344;17.786;2022-08-01T03:57:37;118336.50;;;-144.97;96.94
42415;BME280;28058;46.344;17.786;2022-08-01T04:00:05;118336.50;;;-144.97;96.74
42415;BME280;28058;46.344;17.786;2022-08-01T04:02:36;118336.50;;;-144.97;97.43
42415;BME280;28058;46.344;17.786;2022-08-01T04:05:03;118336.50;;;-144.97;97.20
42415;BME280;28058;46.344;17.786;2022-08-01T04:07:31;118336.50;;;-144.97;97.41
42415;BME280;28058;46.344;17.786;2022-08-01T04:09:58;118336.50;;;-144.97;96.75
42415;BME280;28058;46.344;17.786;2022-08-01T04:12:25;118336.50;;;-144.97;96.25
42415;BME280;28058;46.344;17.786;2022-08-01T04:14:52;118336.50;;;-144.97;97.43
42415;BME280;28058;46.344;17.786;2022-08-01T04:17:19;118336.50;;;-144.97;97.70
42415;BME280;28058;46.344;17.786;2022-08-01T04:19:45;118336.50;;;-144.97;98.73
42415;BME280;28058;46.344;17.786;2022-08-01T04:22:13;118336.50;;;-144.97;99.13
42415;BME280;28058;46.344;17.786;2022-08-01T04:24:41;118336.50;;;-144.97;98.86
42415;BME280;28058;46.344;17.786;2022-08-01T04:27:09;118336.50;;;-144.97;94.31
42415;BME280;28058;46.344;17.786;2022-08-01T04:29:37;118336.50;;;-144.97;84.98
42415;BME280;28058;46.344;17.786;2022-08-01T04:32:06;118336.50;;;-144.97;76.08
42415;BME280;28058;46.344;17.786;2022-08-01T04:34:34;118336.50;;;-144.97;68.55
42415;BME280;28058;46.344;17.786;2022-08-01T04:37:01;118336.50;;;-144.97;63.18
42415;BME280;28058;46.344;17.786;2022-08-01T04:39:29;118336.50;;;-144.97;58.07
42415;BME280;28058;46.344;17.786;2022-08-01T04:42:00;118336.50;;;-144.97;53.80
42415;BME280;28058;46.344;17.786;2022-08-01T04:44:31;118336.50;;;-144.97;50.58
42415;BME280;28058;46.344;17.786;2022-08-01T04:47:01;118336.50;;;-144.97;49.03
42415;BME280;28058;46.344;17.786;2022-08-01T04:49:32;118336.50;;;-144.97;47.47
42415;BME280;28058;46.344;17.786;2022-08-01T04:52:14;118336.50;;;-144.97;45.11
42415;BME280;28058;46.344;17.786;2022-08-01T04:54:47;118336.50;;;-144.97;44.13
42415;BME280;28058;46.344;17.786;2022-08-01T04:57:13;118336.50;;;-144.97;43.24
42415;BME280;28058;46.344;17.786;2022-08-01T04:59:42;118336.50;;;-144.97;41.82
42415;BME280;28058;46.344;17.786;2022-08-01T05:02:18;118336.50;;;-144.97;41.09
42415;BME280;28058;46.344;17.786;2022-08-01T05:04:46;118336.50;;;-144.97;40.78
42415;BME280;28058;46.344;17.786;2022-08-01T05:07:13;118336.50;;;-144.97;42.11
42415;BME280;28058;46.344;17.786;2022-08-01T05:09:40;118336.50;;;-144.97;41.68
42415;BME280;28058;46.344;17.786;2022-08-01T05:12:12;118336.50;;;-144.97;40.69
42415;BME280;28058;46.344;17.786;2022-08-01T05:14:40;118336.50;;;-144.97;41.47
42415;BME280;28058;46.344;17.786;2022-08-01T05:17:07;118336.50;;;-144.97;40.40
42415;BME280;28058;46.344;17.786;2022-08-01T05:19:37;118336.50;;;-144.97;42.10
42415;BME280;28058;46.344;17.786;2022-08-01T05:22:06;118336.50;;;-144.97;39.99
42415;BME280;28058;46.344;17.786;2022-08-01T05:24:35;118336.50;;;-144.97;38.02
42415;BME280;28058;46.344;17.786;2022-08-01T05:27:06;118336.50;;;-144.97;36.74
42415;BME280;28058;46.344;17.786;2022-08-01T05:29:36;118336.50;;;-144.97;36.51
42415;BME280;28058;46.344;17.786;2022-08-01T05:32:09;118336.50;;;-144.97;36.67
42415;BME280;28058;46.344;17.786;2022-08-01T05:34:36;118336.50;;;-144.97;37.44
42415;BME280;28058;46.344;17.786;2022-08-01T05:37:03;118336.50;;;-144.97;41.40
42415;BME280;28058;46.344;17.786;2022-08-01T05:39:29;118336.50;;;-144.97;45.57
42415;BME280;28058;46.344;17.786;2022-08-01T05:41:56;118336.50;;;-144.97;48.50
42415;BME280;28058;46.344;17.786;2022-08-01T05:44:23;118336.50;;;-144.97;52.89
42415;BME280;28058;46.344;17.786;2022-08-01T05:46:50;118336.50;;;-144.97;54.81
42415;BME280;28058;46.344;17.786;2022-08-01T05:49:17;118336.50;;;-144.97;56.50
42415;BME280;28058;46.344;17.786;2022-08-01T05:51:44;118336.50;;;-144.97;58.82
42415;BME280;28058;46.344;17.786;2022-08-01T05:54:11;118336.50;;;-144.97;60.19
42415;BME280;28058;46.344;17.786;2022-08-01T05:56:37;118336.50;;;-144.97;60.85
42415;BME280;28058;46.344;17.786;2022-08-01T05:59:04;118336.50;;;-144.97;60.07
42415;BME280;28058;46.344;17.786;2022-08-01T06:01:31;118336.50;;;-144.97;60.71
42415;BME280;28058;46.344;17.786;2022-08-01T06:03:58;118336.50;;;-144.97;56.40
42415;BME280;28058;46.344;17.786;2022-08-01T06:06:25;118336.50;;;-144.97;46.90
42415;BME280;28058;46.344;17.786;2022-08-01T06:08:52;118336.50;;;-144.97;41.31
42415;BME280;28058;46.344;17.786;2022-08-01T06:11:18;118336.50;;;-144.97;36.61
42415;BME280;28058;46.344;17.786;2022-08-01T06:13:45;118336.50;;;-144.97;34.79
42415;BME280;28058;46.344;17.786;2022-08-01T06:16:14;118336.50;;;-144.97;33.55
42415;BME280;28058;46.344;17.786;2022-08-01T06:18:41;118336.50;;;-144.97;32.97
42415;BME280;28058;46.344;17.786;2022-08-01T06:21:07;118336.50;;;-144.97;32.02
42415;BME280;28058;46.344;17.786;2022-08-01T06:23:34;118336.50;;;-144.97;31.36
42415;BME280;28058;46.344;17.786;2022-08-01T06:26:01;118336.50;;;-144.97;30.92
42415;BME280;28058;46.344;17.786;2022-08-01T06:28:27;118336.50;;;-144.97;33.96
42415;BME280;28058;46.344;17.786;2022-08-01T06:30:54;118336.50;;;-144.97;35.31
42415;BME280;28058;46.344;17.786;2022-08-01T06:33:21;118336.50;;;-144.97;35.08
42415;BME280;28058;46.344;17.786;2022-08-01T06:35:48;118336.50;;;-144.97;35.76
42415;BME280;28058;46.344;17.786;2022-08-01T06:38:14;118336.50;;;-144.97;32.91
42415;BME280;28058;46.344;17.786;2022-08-01T06:40:41;118336.50;;;-144.97;35.01
42415;BME280;28058;46.344;17.786;2022-08-01T06:43:08;118336.50;;;-144.97;36.40
42415;BME280;28058;46.344;17.786;2022-08-01T06:45:36;118336.50;;;-144.97;37.94
42415;BME280;28058;46.344;17.786;2022-08-01T06:48:03;118336.50;;;-144.97;40.38
42415;BME280;28058;46.344;17.786;2022-08-01T06:50:30;118336.50;;;-144.97;41.61
42415;BME280;28058;46.344;17.786;2022-08-01T06:52:57;118336.50;;;-144.97;41.80
42415;BME280;28058;46.344;17.786;2022-08-01T06:55:24;118336.50;;;-144.97;42.85
42415;BME280;28058;46.344;17.786;2022-08-01T06:57:51;118336.50;;;-144.97;43.91
42415;BME280;28058;46.344;17.786;2022-08-01T07:00:19;118336.50;;;-144.97;44.76
42415;BME280;28058;46.344;17.786;2022-08-01T07:02:49;118336.50;;;-144.97;46.82
42415;BME280;28058;46.344;17.786;2022-08-01T07:05:16;118336.50;;;-144.97;46.45
42415;BME280;28058;46.344;17.786;2022-08-01T07:07:43;118336.50;;;-144.97;45.31
42415;BME280;28058;46.344;17.786;2022-08-01T07:10:10;118336.50;;;-144.97;43.82
42415;BME280;28058;46.344;17.786;2022-08-01T07:12:37;118336.50;;;-144.97;35.42
42415;BME280;28058;46.344;17.786;2022-08-01T07:15:05;118336.50;;;-144.97;33.60
42415;BME280;28058;46.344;17.786;2022-08-01T07:17:32;118336.50;;;-144.97;33.46
42415;BME280;28058;46.344;17.786;2022-08-01T07:19:59;118336.50;;;-144.97;34.89
42415;BME280;28058;46.344;17.786;2022-08-01T07:22:25;118336.50;;;-144.97;34.44
42415;BME280;28058;46.344;17.786;2022-08-01T07:24:52;118336.50;;;-144.97;34.98
42415;BME280;28058;46.344;17.786;2022-08-01T07:27:20;118336.50;;;-144.97;33.91
42415;BME280;28058;46.344;17.786;2022-08-01T07:29:51;118336.50;;;-144.97;34.46
42415;BME280;28058;46.344;17.786;2022-08-01T07:32:18;118336.50;;;-144.97;34.64
42415;BME280;28058;46.344;17.786;2022-08-01T07:34:45;118336.50;;;-144.97;33.68
42415;BME280;28058;46.344;17.786;2022-08-01T07:37:12;118336.50;;;-144.97;33.40
42415;BME280;28058;46.344;17.786;2022-08-01T07:39:38;118336.50;;;-144.97;32.64
42415;BME280;28058;46.344;17.786;2022-08-01T07:42:05;118336.50;;;-144.97;32.93
42415;BME280;28058;46.344;17.786;2022-08-01T07:44:34;118336.50;;;-144.97;32.95
42415;BME280;28058;46.344;17.786;2022-08-01T07:47:00;118336.50;;;-144.97;32.03
42415;BME280;28058;46.344;17.786;2022-08-01T07:49:27;118336.50;;;-144.97;31.54
42415;BME280;28058;46.344;17.786;2022-08-01T07:51:54;118336.50;;;-144.97;31.54
42415;BME280;28058;46.344;17.786;2022-08-01T07:54:38;118336.50;;;-144.97;31.78
42415;BME280;28058;46.344;17.786;2022-08-01T07:57:05;118336.50;;;-144.97;32.41
42415;BME280;28058;46.344;17.786;2022-08-01T07:59:32;118336.50;;;-144.97;32.24
42415;BME280;28058;46.344;17.786;2022-08-01T08:01:58;118336.50;;;-144.97;31.88
42415;BME280;28058;46.344;17.786;2022-08-01T08:04:26;118336.50;;;-144.97;31.89
42415;BME280;28058;46.344;17.786;2022-08-01T08:06:53;118336.50;;;-144.97;31.29
42415;BME280;28058;46.344;17.786;2022-08-01T08:09:20;118336.50;;;-144.97;30.73
42415;BME280;28058;46.344;17.786;2022-08-01T08:11:47;118336.50;;;-144.97;30.93
42415;BME280;28058;46.344;17.786;2022-08-01T08:14:14;118336.50;;;-144.97;31.37
42415;BME280;28058;46.344;17.786;2022-08-01T08:16:41;118336.50;;;-144.97;31.37
42415;BME280;28058;46.344;17.786;2022-08-01T08:19:08;118336.50;;;-144.97;31.09
42415;BME280;28058;46.344;17.786;2022-08-01T08:21:34;118336.50;;;-144.97;31.37
42415;BME280;28058;46.344;17.786;2022-08-01T08:24:02;118336.50;;;-144.97;30.63
42415;BME280;28058;46.344;17.786;2022-08-01T08:26:59;118336.50;;;-144.97;30.12
42415;BME280;28058;46.344;17.786;2022-08-01T08:29:27;118336.50;;;-144.97;30.08
42415;BME280;28058;46.344;17.786;2022-08-01T08:31:56;118336.50;;;-144.97;29.82
42415;BME280;28058;46.344;17.786;2022-08-01T08:34:24;118336.50;;;-144.97;29.17
42415;BME280;28058;46.344;17.786;2022-08-01T08:36:51;118336.50;;;-144.97;28.80
42415;BME280;28058;46.344;17.786;2022-08-01T08:39:18;118336.50;;;-144.97;29.57
42415;BME280;28058;46.344;17.786;2022-08-01T08:41:46;118336.50;;;-144.97;28.89
42415;BME280;28058;46.344;17.786;2022-08-01T08:44:15;118336.50;;;-144.97;28.97
42415;BME280;28058;46.344;17.786;2022-08-01T08:46:43;118336.50;;;-144.97;27.81
42415;BME280;28058;46.344;17.786;2022-08-01T08:49:11;118336.50;;;-144.97;25.95
42415;BME280;28058;46.344;17.786;2022-08-01T08:51:39;118336.50;;;-144.97;25.92
42415;BME280;28058;46.344;17.786;2022-08-01T08:54:06;118336.50;;;-144.97;26.37
42415;BME280;28058;46.344;17.786;2022-08-01T08:56:34;118336.50;;;-144.97;26.23
42415;BME280;28058;46.344;17.786;2022-08-01T08:59:02;118336.50;;;-144.97;26.73
42415;BME280;28058;46.344;17.786;2022-08-01T09:01:30;118336.50;;;-144.97;27.02
42415;BME280;28058;46.344;17.786;2022-08-01T09:03:59;118336.50;;;-144.97;27.01
42415;BME280;28058;46.344;17.786;2022-08-01T09:06:26;118336.50;;;-144.97;26.87
42415;BME280;28058;46.344;17.786;2022-08-01T09:08:52;118336.50;;;-144.97;27.71
42415;BME280;28058;46.344;17.786;2022-08-01T09:11:20;118336.50;;;-144.97;27.36
42415;BME280;28058;46.344;17.786;2022-08-01T09:14:01;118336.50;;;-144.97;27.17
42415;BME280;28058;46.344;17.786;2022-08-01T09:16:29;118336.50;;;-144.97;26.48
42415;BME280;28058;46.344;17.786;2022-08-01T09:19:18;118336.50;;;-144.97;26.20
42415;BME280;28058;46.344;17.786;2022-08-01T09:22:07;118336.50;;;-144.97;27.42
42415;BME280;28058;46.344;17.786;2022-08-01T09:24:35;118336.50;;;-144.97;29.17
42415;BME280;28058;46.344;17.786;2022-08-01T09:27:14;118336.50;;;-144.97;29.00
42415;BME280;28058;46.344;17.786;2022-08-01T09:29:42;118336.50;;;-144.97;29.42
42415;BME280;28058;46.344;17.786;2022-08-01T09:32:15;118336.50;;;-144.97;29.09
42415;BME280;28058;46.344;17.786;2022-08-01T09:34:41;118336.50;;;-144.97;29.58
42415;BME280;28058;46.344;17.786;2022-08-01T09:37:08;118336.50;;;-144.97;29.35
42415;BME280;28058;46.344;17.786;2022-08-01T09:39:36;118336.50;;;-144.97;29.56
42415;BME280;28058;46.344;17.786;2022-08-01T09:42:21;118336.50;;;-144.97;28.48
42415;BME280;28058;46.344;17.786;2022-08-01T09:44:54;118336.50;;;-144.97;29.26
42415;BME280;28058;46.344;17.786;2022-08-01T09:47:21;118336.50;;;-144.97;29.01
42415;BME280;28058;46.344;17.786;2022-08-01T09:49:55;118336.50;;;-144.97;28.92
42415;BME280;28058;46.344;17.786;2022-08-01T09:52:25;118336.50;;;-144.97;28.83
42415;BME280;28058;46.344;17.786;2022-08-01T09:55:01;118336.50;;;-144.97;28.55
42415;BME280;28058;46.344;17.786;2022-08-01T09:57:29;118336.50;;;-144.97;29.10
42415;BME280;28058;46.344;17.786;2022-08-01T09:59:57;118336.50;;;-144.97;29.22
42415;BME280;28058;46.344;17.786;2022-08-01T10:02:33;118336.50;;;-144.97;28.66
42415;BME280;28058;46.344;17.786;2022-08-01T10:05:02;118336.50;;;-144.97;28.72
42415;BME280;28058;46.344;17.786;2022-08-01T10:07:35;118336.50;;;-144.97;28.61
42415;BME280;28058;46.344;17.786;2022-08-01T10:10:13;118336.50;;;-144.97;28.67
42415;BME280;28058;46.344;17.786;2022-08-01T10:12:40;118336.50;;;-144.97;28.89
42415;BME280;28058;46.344;17.786;2022-08-01T10:15:11;118336.50;;;-144.97;28.86
42415;BME280;28058;46.344;17.786;2022-08-01T10:17:40;118336.50;;;-144.97;28.61
42415;BME280;28058;46.344;17.786;2022-08-01T10:20:18;118336.50;;;-144.97;28.61
42415;BME280;28058;46.344;17.786;2022-08-01T10:22:57;118336.50;;;-144.97;28.36
42415;BME280;28058;46.344;17.786;2022-08-01T10:25:27;118336.50;;;-144.97;29.26
42415;BME280;28058;46.344;17.786;2022-08-01T10:28:15;118336.50;;;-144.97;29.06
42415;BME280;28058;46.344;17.786;2022-08-01T10:30:49;118336.50;;;-144.97;29.71
42415;BME280;28058;46.344;17.786;2022-08-01T10:33:20;118336.50;;;-144.97;29.11
42415;BME280;28058;46.344;17.786;2022-08-01T10:36:08;118336.50;;;-144.97;29.05
42415;BME280;28058;46.344;17.786;2022-08-01T10:38:35;118336.50;;;-144.97;29.15
42415;BME280;28058;46.344;17.786;2022-08-01T10:41:03;118336.50;;;-144.97;29.99
42415;BME280;28058;46.344;17.786;2022-08-01T10:43:32;118336.50;;;-144.97;29.84
42415;BME280;28058;46.344;17.786;2022-08-01T10:46:00;118336.50;;;-144.97;29.85
42415;BME280;28058;46.344;17.786;2022-08-01T10:48:29;118336.50;;;-144.97;29.66
42415;BME280;28058;46.344;17.786;2022-08-01T10:50:58;118336.50;;;-144.97;30.82
42415;BME280;28058;46.344;17.786;2022-08-01T10:53:26;118336.50;;;-144.97;30.89
42415;BME280;28058;46.344;17.786;2022-08-01T10:56:07;118336.50;;;-144.97;30.64
42415;BME280;28058;46.344;17.786;2022-08-01T10:58:42;118336.50;;;-144.97;29.82
42415;BME280;28058;46.344;17.786;2022-08-01T11:01:16;118336.50;;;-144.97;29.57
42415;BME280;28058;46.344;17.786;2022-08-01T11:09:03;118336.50;;;-144.97;29.80
42415;BME280;28058;46.344;17.786;2022-08-01T11:11:56;118336.50;;;-144.97;29.38
42415;BME280;28058;46.344;17.786;2022-08-01T11:14:18;118336.50;;;-144.97;29.28
42415;BME280;28058;46.344;17.786;2022-08-01T11:16:55;118336.50;;;-144.97;29.63
42415;BME280;28058;46.344;17.786;2022-08-01T11:19:22;118336.50;;;-144.97;30.07
42415;BME280;28058;46.344;17.786;2022-08-01T11:27:15;118336.50;;;-144.97;29.96
42415;BME280;28058;46.344;17.786;2022-08-01T11:32:51;118336.50;;;-144.97;30.19
42415;BME280;28058;46.344;17.786;2022-08-01T11:35:37;118336.50;;;-144.97;29.59
42415;BME280;28058;46.344;17.786;2022-08-01T11:38:24;118336.50;;;-144.97;29.68
42415;BME280;28058;46.344;17.786;2022-08-01T11:43:54;118336.50;;;-144.97;29.59
42415;BME280;28058;46.344;17.786;2022-08-01T11:51:58;118336.50;;;-144.97;29.27
42415;BME280;28058;46.344;17.786;2022-08-01T11:54:29;118336.50;;;-144.97;29.40
42415;BME280;28058;46.344;17.786;2022-08-01T11:57:07;118336.50;;;-144.97;29.04
42415;BME280;28058;46.344;17.786;2022-08-01T11:59:43;118336.50;;;-144.97;29.16
42415;BME280;28058;46.344;17.786;2022-08-01T12:02:33;118336.50;;;-144.97;29.27
42415;BME280;28058;46.344;17.786;2022-08-01T12:07:37;118336.50;;;-144.97;30.10
42415;BME280;28058;46.344;17.786;2022-08-01T12:10:05;118336.50;;;-144.97;29.72
42415;BME280;28058;46.344;17.786;2022-08-01T12:12:33;118336.50;;;-144.97;29.29
42415;BME280;28058;46.344;17.786;2022-08-01T12:15:02;118336.50;;;-144.97;30.19
42415;BME280;28058;46.344;17.786;2022-08-01T12:17:34;118336.50;;;-144.97;30.71
42415;BME280;28058;46.344;17.786;2022-08-01T12:20:02;118336.50;;;-144.97;30.46
42415;BME280;28058;46.344;17.786;2022-08-01T12:22:30;118336.50;;;-144.97;29.91
42415;BME280;28058;46.344;17.786;2022-08-01T12:25:04;118336.50;;;-144.97;29.94
42415;BME280;28058;46.344;17.786;2022-08-01T12:27:31;118336.50;;;-144.97;30.53
42415;BME280;28058;46.344;17.786;2022-08-01T12:29:58;118336.50;;;-144.97;30.43
42415;BME280;28058;46.344;17.786;2022-08-01T12:32:31;118336.50;;;-144.97;30.33
42415;BME280;28058;46.344;17.786;2022-08-01T12:35:43;118336.50;;;-144.97;30.08
42415;BME280;28058;46.344;17.786;2022-08-01T12:37:51;118336.50;;;-144.97;30.50
42415;BME280;28058;46.344;17.786;2022-08-01T12:40:25;118336.50;;;-144.97;30.87
42415;BME280;28058;46.344;17.786;2022-08-01T12:42:53;118336.50;;;-144.97;31.35
42415;BME280;28058;46.344;17.786;2022-08-01T12:45:21;118336.50;;;-144.97;31.79
42415;BME280;28058;46.344;17.786;2022-08-01T12:47:48;118336.50;;;-144.97;31.80
42415;BME280;28058;46.344;17.786;2022-08-01T12:50:16;118336.50;;;-144.97;31.46
42415;BME280;28058;46.344;17.786;2022-08-01T12:52:44;118336.50;;;-144.97;31.21
42415;BME280;28058;46.344;17.786;2022-08-01T12:55:18;118336.50;;;-144.97;30.73
42415;BME280;28058;46.344;17.786;2022-08-01T12:57:47;118336.50;;;-144.97;31.17
42415;BME280;28058;46.344;17.786;2022-08-01T13:00:18;118336.50;;;-144.97;30.58
42415;BME280;28058;46.344;17.786;2022-08-01T13:02:46;118336.50;;;-144.97;31.57
42415;BME280;28058;46.344;17.786;2022-08-01T13:05:14;118336.50;;;-144.97;31.53
42415;BME280;28058;46.344;17.786;2022-08-01T13:07:47;118336.50;;;-144.97;32.05
42415;BME280;28058;46.344;17.786;2022-08-01T13:10:24;118336.50;;;-144.97;31.79
42415;BME280;28058;46.344;17.786;2022-08-01T13:12:53;118336.50;;;-144.97;32.48
42415;BME280;28058;46.344;17.786;2022-08-01T13:15:29;118336.50;;;-144.97;31.67
42415;BME280;28058;46.344;17.786;2022-08-01T13:18:00;118336.50;;;-144.97;31.40